Airfield :







YOU CAN JOIN US ON...

 
LOGIN :

Register | Disclaimer

   EN    FR    IT 

 









Legend :    VFR   Marginal VFR   IFR   Intensive IFR   Very Intensive IFR
Visi :
Ceiling :
>= 8 km
>= 3000ft
5 to 8 km
1000 to 3000 ft
1500m to 5 km
500 to 1000 ft
800 to 1500m
200 to 500 ft
< 800m
< 200 ft
Symbols :   Thunderstorms  Fog  Heavy snow  Heavy precipitations  Wind > 20 kt







- Airport Elevation : 76 ft
- IATA code : EGS


BIEG - Egilsstaðir

CURRENT METAR :
  • 250400Z 17004KT 9999 BKN029 07/05 Q1009 RMK WIND GAGNHEIDI 25025KT

EXPIRED METARs :
  • 250300Z 19006KT 9999 FEW027 SCT031 BKN039 09/06 Q1009 RMK WIND GAGNHEIDI 28021KT
  • 250200Z 23004KT 9999 FEW027 SCT031 BKN039 08/06 Q1009 RMK WIND GAGNHEIDI 28015KT

TAF TAF BIEG
Valid from the 25 at 03:00 until the 26 at 03:00 UTC


250107Z 2503/2603 18005KT 9999 FEW010 SCT020 BKN040 TX14/2515Z TN05/2505Z
BECMG 2515/2518 18015G25KT
BECMG 2520/2523 RA BKN025 OVC040
No reported NOTAMs for that airfield.



MET'MAP, your aeronautical weather chart ! - Copyright ORBIFLY December 2007 - Disclaimer

ORBIFLY MET'MAP TEAM :

Programming & Development : Alexandra Zaïnal
Concept & Development : Baudouin d'Aumeries
Co-Development & Prog : Marc-Olivier Méhu
Technical & hardware support : Manuel Goepfert

Contact : metmap@orbifly.com




SOURCES & CREDITS :

   NOAA